sensor_id;sensor_type;location;lat;lon;timestamp;P1;durP1;ratioP1;P2;durP2;ratioP2
10715;SDS011;5409;42.620;23.316;2023-05-13T00:02:16;4.88;;;3.08;;
10715;SDS011;5409;42.620;23.316;2023-05-13T00:04:42;3.28;;;2.83;;
10715;SDS011;5409;42.620;23.316;2023-05-13T00:07:09;3.40;;;3.10;;
10715;SDS011;5409;42.620;23.316;2023-05-13T00:09:37;4.50;;;3.40;;
10715;SDS011;5409;42.620;23.316;2023-05-13T00:12:04;4.75;;;3.00;;
10715;SDS011;5409;42.620;23.316;2023-05-13T00:14:31;4.00;;;3.60;;
10715;SDS011;5409;42.620;23.316;2023-05-13T00:16:58;5.43;;;3.75;;
10715;SDS011;5409;42.620;23.316;2023-05-13T00:19:28;4.00;;;3.65;;
10715;SDS011;5409;42.620;23.316;2023-05-13T00:21:54;5.32;;;4.07;;
10715;SDS011;5409;42.620;23.316;2023-05-13T00:24:21;6.53;;;5.80;;
10715;SDS011;5409;42.620;23.316;2023-05-13T00:26:49;4.97;;;4.22;;
10715;SDS011;5409;42.620;23.316;2023-05-13T00:29:16;7.13;;;5.97;;
10715;SDS011;5409;42.620;23.316;2023-05-13T00:31:43;9.18;;;5.68;;
10715;SDS011;5409;42.620;23.316;2023-05-13T00:34:09;11.98;;;6.68;;
10715;SDS011;5409;42.620;23.316;2023-05-13T00:36:36;9.40;;;7.22;;
10715;SDS011;5409;42.620;23.316;2023-05-13T00:39:03;10.35;;;7.95;;
10715;SDS011;5409;42.620;23.316;2023-05-13T00:41:30;12.95;;;7.90;;
10715;SDS011;5409;42.620;23.316;2023-05-13T00:43:58;12.00;;;8.15;;
10715;SDS011;5409;42.620;23.316;2023-05-13T00:46:25;11.65;;;8.50;;
10715;SDS011;5409;42.620;23.316;2023-05-13T00:48:56;10.75;;;9.13;;
10715;SDS011;5409;42.620;23.316;2023-05-13T00:51:23;11.27;;;8.35;;
10715;SDS011;5409;42.620;23.316;2023-05-13T00:53:50;11.57;;;9.23;;
10715;SDS011;5409;42.620;23.316;2023-05-13T00:56:18;14.13;;;9.27;;
10715;SDS011;5409;42.620;23.316;2023-05-13T00:58:45;12.43;;;9.02;;
10715;SDS011;5409;42.620;23.316;2023-05-13T01:01:15;11.50;;;8.73;;
10715;SDS011;5409;42.620;23.316;2023-05-13T01:03:49;12.68;;;9.15;;
10715;SDS011;5409;42.620;23.316;2023-05-13T01:06:22;10.70;;;9.10;;
10715;SDS011;5409;42.620;23.316;2023-05-13T01:09:00;11.23;;;9.57;;
10715;SDS011;5409;42.620;23.316;2023-05-13T01:11:34;13.43;;;10.40;;
10715;SDS011;5409;42.620;23.316;2023-05-13T01:14:05;12.30;;;9.50;;
10715;SDS011;5409;42.620;23.316;2023-05-13T01:16:38;11.30;;;9.35;;
10715;SDS011;5409;42.620;23.316;2023-05-13T01:19:11;10.70;;;9.32;;
10715;SDS011;5409;42.620;23.316;2023-05-13T01:21:52;10.85;;;9.13;;
10715;SDS011;5409;42.620;23.316;2023-05-13T01:24:19;13.60;;;9.25;;
10715;SDS011;5409;42.620;23.316;2023-05-13T01:26:46;17.25;;;11.15;;
10715;SDS011;5409;42.620;23.316;2023-05-13T01:29:13;12.02;;;9.50;;
10715;SDS011;5409;42.620;23.316;2023-05-13T01:31:40;12.18;;;9.77;;
10715;SDS011;5409;42.620;23.316;2023-05-13T01:34:08;11.98;;;9.23;;
10715;SDS011;5409;42.620;23.316;2023-05-13T01:36:35;14.85;;;10.52;;
10715;SDS011;5409;42.620;23.316;2023-05-13T01:39:04;13.20;;;10.32;;
10715;SDS011;5409;42.620;23.316;2023-05-13T01:41:32;14.20;;;10.50;;
10715;SDS011;5409;42.620;23.316;2023-05-13T01:43:59;13.48;;;10.60;;
10715;SDS011;5409;42.620;23.316;2023-05-13T01:46:26;11.80;;;9.70;;
10715;SDS011;5409;42.620;23.316;2023-05-13T01:48:53;14.57;;;11.20;;
10715;SDS011;5409;42.620;23.316;2023-05-13T01:51:20;13.88;;;10.10;;
10715;SDS011;5409;42.620;23.316;2023-05-13T01:53:46;11.23;;;9.60;;
10715;SDS011;5409;42.620;23.316;2023-05-13T01:56:14;12.20;;;9.80;;
10715;SDS011;5409;42.620;23.316;2023-05-13T01:58:41;12.63;;;9.13;;
10715;SDS011;5409;42.620;23.316;2023-05-13T02:01:08;11.98;;;9.07;;
10715;SDS011;5409;42.620;23.316;2023-05-13T02:03:35;14.70;;;9.65;;
10715;SDS011;5409;42.620;23.316;2023-05-13T02:06:02;11.63;;;9.43;;
10715;SDS011;5409;42.620;23.316;2023-05-13T02:08:29;12.70;;;9.38;;
10715;SDS011;5409;42.620;23.316;2023-05-13T02:10:57;13.45;;;10.77;;
10715;SDS011;5409;42.620;23.316;2023-05-13T02:13:25;14.80;;;10.30;;
10715;SDS011;5409;42.620;23.316;2023-05-13T02:15:52;13.43;;;10.85;;
10715;SDS011;5409;42.620;23.316;2023-05-13T02:18:19;12.48;;;10.25;;
10715;SDS011;5409;42.620;23.316;2023-05-13T02:20:46;14.30;;;10.13;;
10715;SDS011;5409;42.620;23.316;2023-05-13T02:23:13;12.45;;;9.90;;
10715;SDS011;5409;42.620;23.316;2023-05-13T02:25:41;15.10;;;10.68;;
10715;SDS011;5409;42.620;23.316;2023-05-13T02:28:07;13.23;;;10.75;;
10715;SDS011;5409;42.620;23.316;2023-05-13T02:30:36;12.80;;;10.52;;
10715;SDS011;5409;42.620;23.316;2023-05-13T02:33:02;14.27;;;10.40;;
10715;SDS011;5409;42.620;23.316;2023-05-13T02:35:29;13.38;;;10.15;;
10715;SDS011;5409;42.620;23.316;2023-05-13T02:37:56;14.05;;;10.52;;
10715;SDS011;5409;42.620;23.316;2023-05-13T02:40:23;16.85;;;10.68;;
10715;SDS011;5409;42.620;23.316;2023-05-13T02:42:50;12.55;;;10.15;;
10715;SDS011;5409;42.620;23.316;2023-05-13T02:45:17;17.10;;;11.25;;
10715;SDS011;5409;42.620;23.316;2023-05-13T02:47:45;15.20;;;10.10;;
10715;SDS011;5409;42.620;23.316;2023-05-13T02:50:12;12.93;;;9.95;;
10715;SDS011;5409;42.620;23.316;2023-05-13T02:52:39;12.88;;;10.07;;
10715;SDS011;5409;42.620;23.316;2023-05-13T02:55:06;15.82;;;10.45;;
10715;SDS011;5409;42.620;23.316;2023-05-13T02:57:34;11.95;;;10.57;;
10715;SDS011;5409;42.620;23.316;2023-05-13T03:00:02;22.60;;;14.77;;
10715;SDS011;5409;42.620;23.316;2023-05-13T03:02:30;15.93;;;12.05;;
10715;SDS011;5409;42.620;23.316;2023-05-13T03:04:58;16.00;;;10.57;;
10715;SDS011;5409;42.620;23.316;2023-05-13T03:07:25;13.38;;;10.63;;
10715;SDS011;5409;42.620;23.316;2023-05-13T03:09:52;15.80;;;10.77;;
10715;SDS011;5409;42.620;23.316;2023-05-13T03:12:18;13.98;;;11.40;;
10715;SDS011;5409;42.620;23.316;2023-05-13T03:14:45;22.67;;;12.32;;
10715;SDS011;5409;42.620;23.316;2023-05-13T03:17:12;15.52;;;12.63;;
10715;SDS011;5409;42.620;23.316;2023-05-13T03:19:39;15.38;;;12.40;;
10715;SDS011;5409;42.620;23.316;2023-05-13T03:22:07;13.38;;;11.40;;
10715;SDS011;5409;42.620;23.316;2023-05-13T03:24:34;16.77;;;13.38;;
10715;SDS011;5409;42.620;23.316;2023-05-13T03:27:01;15.32;;;12.68;;
10715;SDS011;5409;42.620;23.316;2023-05-13T03:29:28;17.88;;;13.18;;
10715;SDS011;5409;42.620;23.316;2023-05-13T03:31:55;17.30;;;13.15;;
10715;SDS011;5409;42.620;23.316;2023-05-13T03:34:21;18.88;;;12.95;;
10715;SDS011;5409;42.620;23.316;2023-05-13T03:36:48;16.45;;;12.93;;
10715;SDS011;5409;42.620;23.316;2023-05-13T03:39:16;15.07;;;12.68;;
10715;SDS011;5409;42.620;23.316;2023-05-13T03:41:43;20.83;;;13.02;;
10715;SDS011;5409;42.620;23.316;2023-05-13T03:44:10;16.42;;;12.48;;
10715;SDS011;5409;42.620;23.316;2023-05-13T03:46:36;19.52;;;13.98;;
10715;SDS011;5409;42.620;23.316;2023-05-13T03:49:03;18.88;;;13.75;;
10715;SDS011;5409;42.620;23.316;2023-05-13T03:51:30;13.90;;;11.27;;
10715;SDS011;5409;42.620;23.316;2023-05-13T03:53:58;17.75;;;12.65;;
10715;SDS011;5409;42.620;23.316;2023-05-13T03:56:26;9.73;;;8.73;;
10715;SDS011;5409;42.620;23.316;2023-05-13T03:58:53;10.73;;;8.57;;
10715;SDS011;5409;42.620;23.316;2023-05-13T04:01:20;10.65;;;9.50;;
10715;SDS011;5409;42.620;23.316;2023-05-13T04:03:47;13.27;;;10.00;;
10715;SDS011;5409;42.620;23.316;2023-05-13T04:06:14;12.65;;;10.00;;
10715;SDS011;5409;42.620;23.316;2023-05-13T04:08:41;12.13;;;9.05;;
10715;SDS011;5409;42.620;23.316;2023-05-13T04:11:08;12.50;;;9.75;;
10715;SDS011;5409;42.620;23.316;2023-05-13T04:13:36;12.07;;;9.75;;
10715;SDS011;5409;42.620;23.316;2023-05-13T04:16:03;12.32;;;9.77;;
10715;SDS011;5409;42.620;23.316;2023-05-13T04:18:32;13.55;;;10.30;;
10715;SDS011;5409;42.620;23.316;2023-05-13T04:21:04;14.57;;;11.38;;
10715;SDS011;5409;42.620;23.316;2023-05-13T04:23:31;18.08;;;12.65;;
10715;SDS011;5409;42.620;23.316;2023-05-13T04:25:58;17.05;;;12.10;;
10715;SDS011;5409;42.620;23.316;2023-05-13T04:28:25;13.90;;;11.00;;
10715;SDS011;5409;42.620;23.316;2023-05-13T04:30:53;16.63;;;11.88;;
10715;SDS011;5409;42.620;23.316;2023-05-13T04:33:20;17.98;;;11.38;;
10715;SDS011;5409;42.620;23.316;2023-05-13T04:35:47;13.88;;;10.82;;
10715;SDS011;5409;42.620;23.316;2023-05-13T04:38:13;11.77;;;9.95;;
10715;SDS011;5409;42.620;23.316;2023-05-13T04:40:40;10.95;;;8.75;;
10715;SDS011;5409;42.620;23.316;2023-05-13T04:43:08;12.05;;;8.75;;
10715;SDS011;5409;42.620;23.316;2023-05-13T04:45:35;9.75;;;8.05;;
10715;SDS011;5409;42.620;23.316;2023-05-13T04:48:04;9.73;;;8.23;;
10715;SDS011;5409;42.620;23.316;2023-05-13T04:50:31;11.73;;;8.30;;
10715;SDS011;5409;42.620;23.316;2023-05-13T04:52:58;8.73;;;7.45;;
10715;SDS011;5409;42.620;23.316;2023-05-13T04:55:24;10.63;;;7.75;;
10715;SDS011;5409;42.620;23.316;2023-05-13T04:57:51;17.25;;;8.75;;
10715;SDS011;5409;42.620;23.316;2023-05-13T05:00:18;12.27;;;8.65;;
10715;SDS011;5409;42.620;23.316;2023-05-13T05:02:45;14.82;;;10.45;;
10715;SDS011;5409;42.620;23.316;2023-05-13T05:05:13;19.20;;;11.20;;
10715;SDS011;5409;42.620;23.316;2023-05-13T05:07:39;14.48;;;9.77;;
10715;SDS011;5409;42.620;23.316;2023-05-13T05:10:06;14.73;;;9.68;;
10715;SDS011;5409;42.620;23.316;2023-05-13T05:12:34;13.48;;;9.63;;
10715;SDS011;5409;42.620;23.316;2023-05-13T05:15:02;13.77;;;10.35;;
10715;SDS011;5409;42.620;23.316;2023-05-13T05:17:29;14.45;;;9.20;;
10715;SDS011;5409;42.620;23.316;2023-05-13T05:19:56;13.48;;;9.57;;
10715;SDS011;5409;42.620;23.316;2023-05-13T05:22:25;14.60;;;8.48;;
10715;SDS011;5409;42.620;23.316;2023-05-13T05:24:52;16.08;;;10.38;;
10715;SDS011;5409;42.620;23.316;2023-05-13T05:27:19;12.13;;;8.48;;
10715;SDS011;5409;42.620;23.316;2023-05-13T05:29:45;12.38;;;7.68;;
10715;SDS011;5409;42.620;23.316;2023-05-13T05:32:12;15.82;;;8.75;;
10715;SDS011;5409;42.620;23.316;2023-05-13T05:34:39;18.33;;;10.25;;
10715;SDS011;5409;42.620;23.316;2023-05-13T05:37:06;12.93;;;10.45;;
10715;SDS011;5409;42.620;23.316;2023-05-13T05:39:34;11.30;;;9.43;;
10715;SDS011;5409;42.620;23.316;2023-05-13T05:42:00;12.77;;;9.18;;
10715;SDS011;5409;42.620;23.316;2023-05-13T05:44:27;12.07;;;9.43;;
10715;SDS011;5409;42.620;23.316;2023-05-13T05:46:54;14.40;;;9.55;;
10715;SDS011;5409;42.620;23.316;2023-05-13T05:49:21;9.57;;;8.05;;
10715;SDS011;5409;42.620;23.316;2023-05-13T05:51:48;10.48;;;8.15;;
10715;SDS011;5409;42.620;23.316;2023-05-13T05:54:14;13.23;;;9.15;;
10715;SDS011;5409;42.620;23.316;2023-05-13T05:56:42;11.98;;;8.52;;
10715;SDS011;5409;42.620;23.316;2023-05-13T05:59:09;16.25;;;9.13;;
10715;SDS011;5409;42.620;23.316;2023-05-13T06:01:36;15.48;;;10.27;;
10715;SDS011;5409;42.620;23.316;2023-05-13T06:04:03;12.00;;;9.13;;
10715;SDS011;5409;42.620;23.316;2023-05-13T06:06:30;11.65;;;8.10;;
10715;SDS011;5409;42.620;23.316;2023-05-13T06:08:57;14.07;;;8.55;;
10715;SDS011;5409;42.620;23.316;2023-05-13T06:11:24;14.27;;;8.48;;
10715;SDS011;5409;42.620;23.316;2023-05-13T06:13:53;9.02;;;7.55;;
10715;SDS011;5409;42.620;23.316;2023-05-13T06:16:21;12.95;;;8.38;;
10715;SDS011;5409;42.620;23.316;2023-05-13T06:18:48;10.80;;;8.43;;
10715;SDS011;5409;42.620;23.316;2023-05-13T06:21:15;14.35;;;8.93;;
10715;SDS011;5409;42.620;23.316;2023-05-13T06:23:41;14.85;;;8.48;;
10715;SDS011;5409;42.620;23.316;2023-05-13T06:26:08;13.30;;;8.80;;
10715;SDS011;5409;42.620;23.316;2023-05-13T06:28:35;12.50;;;9.70;;
10715;SDS011;5409;42.620;23.316;2023-05-13T06:31:03;12.10;;;8.38;;
10715;SDS011;5409;42.620;23.316;2023-05-13T06:33:29;9.77;;;7.78;;
10715;SDS011;5409;42.620;23.316;2023-05-13T06:35:56;11.57;;;8.30;;
10715;SDS011;5409;42.620;23.316;2023-05-13T06:38:23;14.88;;;9.23;;
10715;SDS011;5409;42.620;23.316;2023-05-13T06:40:50;16.92;;;9.10;;
10715;SDS011;5409;42.620;23.316;2023-05-13T06:43:16;11.45;;;8.63;;
10715;SDS011;5409;42.620;23.316;2023-05-13T06:45:43;13.45;;;7.95;;
10715;SDS011;5409;42.620;23.316;2023-05-13T06:48:11;9.88;;;7.80;;
10715;SDS011;5409;42.620;23.316;2023-05-13T06:50:38;9.20;;;7.63;;
10715;SDS011;5409;42.620;23.316;2023-05-13T06:53:05;9.50;;;7.72;;
10715;SDS011;5409;42.620;23.316;2023-05-13T06:55:32;11.15;;;7.45;;
10715;SDS011;5409;42.620;23.316;2023-05-13T06:58:05;11.98;;;8.68;;
10715;SDS011;5409;42.620;23.316;2023-05-13T07:00:35;14.63;;;8.55;;
10715;SDS011;5409;42.620;23.316;2023-05-13T07:03:03;12.82;;;8.32;;
10715;SDS011;5409;42.620;23.316;2023-05-13T07:05:31;12.88;;;7.72;;
10715;SDS011;5409;42.620;23.316;2023-05-13T07:07:58;10.10;;;7.65;;
10715;SDS011;5409;42.620;23.316;2023-05-13T07:10:30;10.05;;;7.95;;
10715;SDS011;5409;42.620;23.316;2023-05-13T07:12:57;13.77;;;9.07;;
10715;SDS011;5409;42.620;23.316;2023-05-13T07:15:24;13.07;;;8.93;;
10715;SDS011;5409;42.620;23.316;2023-05-13T07:17:51;13.32;;;8.55;;
10715;SDS011;5409;42.620;23.316;2023-05-13T07:20:17;12.73;;;9.65;;
10715;SDS011;5409;42.620;23.316;2023-05-13T07:22:47;13.57;;;9.23;;
10715;SDS011;5409;42.620;23.316;2023-05-13T07:25:14;9.52;;;8.13;;
10715;SDS011;5409;42.620;23.316;2023-05-13T07:27:41;10.73;;;8.45;;
10715;SDS011;5409;42.620;23.316;2023-05-13T07:30:08;11.63;;;8.38;;
10715;SDS011;5409;42.620;23.316;2023-05-13T07:32:36;11.00;;;7.95;;
10715;SDS011;5409;42.620;23.316;2023-05-13T07:35:03;12.50;;;8.45;;
10715;SDS011;5409;42.620;23.316;2023-05-13T07:37:31;13.10;;;8.27;;
10715;SDS011;5409;42.620;23.316;2023-05-13T07:39:59;10.90;;;7.93;;
10715;SDS011;5409;42.620;23.316;2023-05-13T07:42:25;11.30;;;8.27;;
10715;SDS011;5409;42.620;23.316;2023-05-13T07:44:54;12.07;;;8.63;;
10715;SDS011;5409;42.620;23.316;2023-05-13T07:47:21;11.20;;;8.50;;
10715;SDS011;5409;42.620;23.316;2023-05-13T07:49:48;16.33;;;9.00;;
10715;SDS011;5409;42.620;23.316;2023-05-13T07:52:14;10.77;;;8.85;;
10715;SDS011;5409;42.620;23.316;2023-05-13T07:54:41;12.98;;;8.70;;
10715;SDS011;5409;42.620;23.316;2023-05-13T07:57:09;13.05;;;8.98;;
10715;SDS011;5409;42.620;23.316;2023-05-13T07:59:36;13.05;;;9.32;;
10715;SDS011;5409;42.620;23.316;2023-05-13T08:02:03;14.07;;;9.23;;
10715;SDS011;5409;42.620;23.316;2023-05-13T08:04:30;11.93;;;8.77;;
10715;SDS011;5409;42.620;23.316;2023-05-13T08:06:57;17.13;;;9.45;;
10715;SDS011;5409;42.620;23.316;2023-05-13T08:09:24;14.45;;;9.25;;
10715;SDS011;5409;42.620;23.316;2023-05-13T08:11:50;15.13;;;10.18;;
10715;SDS011;5409;42.620;23.316;2023-05-13T08:14:19;16.85;;;9.32;;
10715;SDS011;5409;42.620;23.316;2023-05-13T08:16:46;13.02;;;8.70;;
10715;SDS011;5409;42.620;23.316;2023-05-13T08:19:13;13.55;;;9.10;;
10715;SDS011;5409;42.620;23.316;2023-05-13T08:21:41;14.73;;;9.52;;
10715;SDS011;5409;42.620;23.316;2023-05-13T08:24:07;13.45;;;9.10;;
10715;SDS011;5409;42.620;23.316;2023-05-13T08:26:35;12.88;;;9.05;;
10715;SDS011;5409;42.620;23.316;2023-05-13T08:29:02;12.15;;;9.00;;
10715;SDS011;5409;42.620;23.316;2023-05-13T08:31:31;12.05;;;9.18;;
10715;SDS011;5409;42.620;23.316;2023-05-13T08:33:57;12.18;;;8.65;;
10715;SDS011;5409;42.620;23.316;2023-05-13T08:36:24;13.07;;;8.20;;
10715;SDS011;5409;42.620;23.316;2023-05-13T08:38:51;12.75;;;8.40;;
10715;SDS011;5409;42.620;23.316;2023-05-13T08:41:18;12.88;;;8.60;;
10715;SDS011;5409;42.620;23.316;2023-05-13T08:43:46;11.15;;;8.50;;
10715;SDS011;5409;42.620;23.316;2023-05-13T08:46:15;13.80;;;8.70;;
10715;SDS011;5409;42.620;23.316;2023-05-13T08:48:45;11.00;;;7.97;;
10715;SDS011;5409;42.620;23.316;2023-05-13T08:51:13;10.57;;;7.57;;
10715;SDS011;5409;42.620;23.316;2023-05-13T08:53:40;12.32;;;8.05;;
10715;SDS011;5409;42.620;23.316;2023-05-13T08:56:08;10.85;;;8.45;;
10715;SDS011;5409;42.620;23.316;2023-05-13T08:58:36;10.38;;;7.28;;
10715;SDS011;5409;42.620;23.316;2023-05-13T09:01:03;15.80;;;8.48;;
10715;SDS011;5409;42.620;23.316;2023-05-13T09:03:31;10.65;;;7.53;;
10715;SDS011;5409;42.620;23.316;2023-05-13T09:06:00;11.27;;;7.68;;
10715;SDS011;5409;42.620;23.316;2023-05-13T09:08:28;13.65;;;7.13;;
10715;SDS011;5409;42.620;23.316;2023-05-13T09:10:56;13.15;;;6.90;;
10715;SDS011;5409;42.620;23.316;2023-05-13T09:13:23;10.65;;;6.88;;
10715;SDS011;5409;42.620;23.316;2023-05-13T09:15:49;7.88;;;6.72;;
10715;SDS011;5409;42.620;23.316;2023-05-13T09:18:16;8.55;;;6.53;;
10715;SDS011;5409;42.620;23.316;2023-05-13T09:20:44;8.98;;;6.15;;
10715;SDS011;5409;42.620;23.316;2023-05-13T09:23:12;9.32;;;5.65;;
10715;SDS011;5409;42.620;23.316;2023-05-13T09:25:40;7.47;;;5.63;;
10715;SDS011;5409;42.620;23.316;2023-05-13T09:28:06;9.82;;;5.50;;
10715;SDS011;5409;42.620;23.316;2023-05-13T09:30:34;8.48;;;5.55;;
10715;SDS011;5409;42.620;23.316;2023-05-13T09:33:03;8.07;;;5.60;;
10715;SDS011;5409;42.620;23.316;2023-05-13T09:35:32;9.27;;;5.43;;
10715;SDS011;5409;42.620;23.316;2023-05-13T09:38:00;11.07;;;5.93;;
10715;SDS011;5409;42.620;23.316;2023-05-13T09:40:28;7.18;;;5.35;;
10715;SDS011;5409;42.620;23.316;2023-05-13T09:42:55;7.85;;;4.82;;
10715;SDS011;5409;42.620;23.316;2023-05-13T09:45:24;8.45;;;5.80;;
10715;SDS011;5409;42.620;23.316;2023-05-13T09:47:51;10.40;;;5.78;;
10715;SDS011;5409;42.620;23.316;2023-05-13T09:50:21;9.15;;;5.50;;
10715;SDS011;5409;42.620;23.316;2023-05-13T09:52:48;6.57;;;5.55;;
10715;SDS011;5409;42.620;23.316;2023-05-13T09:55:15;7.63;;;5.53;;
10715;SDS011;5409;42.620;23.316;2023-05-13T09:57:44;10.18;;;6.30;;
10715;SDS011;5409;42.620;23.316;2023-05-13T10:00:11;7.20;;;6.28;;
10715;SDS011;5409;42.620;23.316;2023-05-13T10:02:39;15.38;;;6.60;;
10715;SDS011;5409;42.620;23.316;2023-05-13T10:05:06;7.18;;;5.80;;
10715;SDS011;5409;42.620;23.316;2023-05-13T10:07:34;9.18;;;5.80;;
10715;SDS011;5409;42.620;23.316;2023-05-13T10:10:03;11.80;;;6.22;;
10715;SDS011;5409;42.620;23.316;2023-05-13T10:12:33;7.57;;;5.88;;
10715;SDS011;5409;42.620;23.316;2023-05-13T10:15:05;7.78;;;5.18;;
10715;SDS011;5409;42.620;23.316;2023-05-13T10:17:33;6.82;;;5.30;;
10715;SDS011;5409;42.620;23.316;2023-05-13T10:20:01;6.50;;;5.15;;
10715;SDS011;5409;42.620;23.316;2023-05-13T10:22:31;6.45;;;5.32;;
10715;SDS011;5409;42.620;23.316;2023-05-13T10:24:59;10.40;;;5.43;;
10715;SDS011;5409;42.620;23.316;2023-05-13T10:27:29;6.55;;;5.43;;
10715;SDS011;5409;42.620;23.316;2023-05-13T10:29:58;7.28;;;5.57;;
10715;SDS011;5409;42.620;23.316;2023-05-13T10:32:28;8.98;;;5.10;;
10715;SDS011;5409;42.620;23.316;2023-05-13T10:34:56;8.27;;;5.60;;
10715;SDS011;5409;42.620;23.316;2023-05-13T10:37:48;9.25;;;6.18;;
10715;SDS011;5409;42.620;23.316;2023-05-13T10:43:20;9.98;;;6.25;;
10715;SDS011;5409;42.620;23.316;2023-05-13T10:45:49;9.00;;;6.20;;
10715;SDS011;5409;42.620;23.316;2023-05-13T10:48:18;8.68;;;6.30;;
10715;SDS011;5409;42.620;23.316;2023-05-13T10:50:51;7.82;;;6.03;;
10715;SDS011;5409;42.620;23.316;2023-05-13T10:53:21;7.78;;;6.25;;
10715;SDS011;5409;42.620;23.316;2023-05-13T10:55:52;8.25;;;5.88;;
10715;SDS011;5409;42.620;23.316;2023-05-13T10:58:20;8.18;;;5.75;;
10715;SDS011;5409;42.620;23.316;2023-05-13T11:00:53;8.05;;;5.82;;
10715;SDS011;5409;42.620;23.316;2023-05-13T11:03:40;8.68;;;5.80;;
10715;SDS011;5409;42.620;23.316;2023-05-13T11:06:14;7.18;;;5.72;;
10715;SDS011;5409;42.620;23.316;2023-05-13T11:08:42;9.75;;;4.97;;
10715;SDS011;5409;42.620;23.316;2023-05-13T11:14:10;8.10;;;6.15;;
10715;SDS011;5409;42.620;23.316;2023-05-13T11:16:44;6.72;;;5.70;;
10715;SDS011;5409;42.620;23.316;2023-05-13T11:19:18;8.38;;;5.95;;
10715;SDS011;5409;42.620;23.316;2023-05-13T11:21:47;7.78;;;5.50;;
10715;SDS011;5409;42.620;23.316;2023-05-13T11:24:16;6.80;;;5.53;;
10715;SDS011;5409;42.620;23.316;2023-05-13T11:26:44;6.78;;;5.93;;
10715;SDS011;5409;42.620;23.316;2023-05-13T11:29:12;8.00;;;5.93;;
10715;SDS011;5409;42.620;23.316;2023-05-13T11:31:43;6.20;;;5.60;;
10715;SDS011;5409;42.620;23.316;2023-05-13T11:34:13;7.57;;;5.75;;
10715;SDS011;5409;42.620;23.316;2023-05-13T11:36:43;11.75;;;7.28;;
10715;SDS011;5409;42.620;23.316;2023-05-13T11:39:12;32.85;;;19.98;;
10715;SDS011;5409;42.620;23.316;2023-05-13T11:41:41;19.98;;;13.57;;
10715;SDS011;5409;42.620;23.316;2023-05-13T11:44:10;15.07;;;10.13;;
10715;SDS011;5409;42.620;23.316;2023-05-13T11:46:47;11.93;;;7.95;;
10715;SDS011;5409;42.620;23.316;2023-05-13T11:49:28;7.35;;;5.50;;
10715;SDS011;5409;42.620;23.316;2023-05-13T11:52:05;8.88;;;5.28;;
10715;SDS011;5409;42.620;23.316;2023-05-13T11:54:39;6.22;;;4.50;;
10715;SDS011;5409;42.620;23.316;2023-05-13T11:57:12;5.28;;;4.75;;
10715;SDS011;5409;42.620;23.316;2023-05-13T11:59:40;8.38;;;4.28;;
10715;SDS011;5409;42.620;23.316;2023-05-13T12:02:07;5.55;;;3.90;;
10715;SDS011;5409;42.620;23.316;2023-05-13T12:04:34;5.15;;;4.20;;
10715;SDS011;5409;42.620;23.316;2023-05-13T12:07:00;5.88;;;4.07;;
10715;SDS011;5409;42.620;23.316;2023-05-13T12:09:30;10.88;;;4.60;;
10715;SDS011;5409;42.620;23.316;2023-05-13T12:11:56;9.32;;;4.45;;
10715;SDS011;5409;42.620;23.316;2023-05-13T12:14:23;5.93;;;4.10;;
10715;SDS011;5409;42.620;23.316;2023-05-13T12:16:51;7.10;;;4.35;;
10715;SDS011;5409;42.620;23.316;2023-05-13T12:19:18;7.32;;;5.70;;
10715;SDS011;5409;42.620;23.316;2023-05-13T12:21:45;5.85;;;4.90;;
10715;SDS011;5409;42.620;23.316;2023-05-13T12:24:18;6.55;;;5.20;;
10715;SDS011;5409;42.620;23.316;2023-05-13T12:26:46;6.03;;;5.20;;
10715;SDS011;5409;42.620;23.316;2023-05-13T12:29:14;7.18;;;5.00;;
10715;SDS011;5409;42.620;23.316;2023-05-13T12:31:41;7.53;;;4.88;;
10715;SDS011;5409;42.620;23.316;2023-05-13T12:34:31;9.80;;;4.78;;
10715;SDS011;5409;42.620;23.316;2023-05-13T12:37:07;7.80;;;5.20;;
10715;SDS011;5409;42.620;23.316;2023-05-13T12:39:36;7.53;;;5.45;;
10715;SDS011;5409;42.620;23.316;2023-05-13T12:42:04;6.15;;;5.00;;
10715;SDS011;5409;42.620;23.316;2023-05-13T12:44:31;6.10;;;4.82;;
10715;SDS011;5409;42.620;23.316;2023-05-13T12:46:58;5.20;;;4.70;;
10715;SDS011;5409;42.620;23.316;2023-05-13T12:49:25;7.63;;;5.28;;
10715;SDS011;5409;42.620;23.316;2023-05-13T12:51:52;6.72;;;4.95;;
10715;SDS011;5409;42.620;23.316;2023-05-13T12:54:19;9.25;;;5.18;;
10715;SDS011;5409;42.620;23.316;2023-05-13T12:56:46;5.93;;;4.53;;
10715;SDS011;5409;42.620;23.316;2023-05-13T12:59:14;7.78;;;4.75;;
10715;SDS011;5409;42.620;23.316;2023-05-13T13:01:43;5.25;;;4.78;;
10715;SDS011;5409;42.620;23.316;2023-05-13T13:04:12;7.47;;;4.60;;
10715;SDS011;5409;42.620;23.316;2023-05-13T13:06:40;5.18;;;4.00;;
10715;SDS011;5409;42.620;23.316;2023-05-13T13:09:07;5.75;;;4.22;;
10715;SDS011;5409;42.620;23.316;2023-05-13T13:11:34;7.10;;;4.70;;
10715;SDS011;5409;42.620;23.316;2023-05-13T13:14:00;6.65;;;4.93;;
10715;SDS011;5409;42.620;23.316;2023-05-13T13:16:28;6.00;;;4.57;;
10715;SDS011;5409;42.620;23.316;2023-05-13T13:18:55;4.80;;;4.32;;
10715;SDS011;5409;42.620;23.316;2023-05-13T13:21:24;4.63;;;4.20;;
10715;SDS011;5409;42.620;23.316;2023-05-13T13:23:51;6.10;;;4.38;;
10715;SDS011;5409;42.620;23.316;2023-05-13T13:26:17;5.07;;;4.50;;
10715;SDS011;5409;42.620;23.316;2023-05-13T13:28:45;4.75;;;4.35;;
10715;SDS011;5409;42.620;23.316;2023-05-13T13:31:11;9.10;;;5.85;;
10715;SDS011;5409;42.620;23.316;2023-05-13T13:33:39;7.07;;;5.05;;
10715;SDS011;5409;42.620;23.316;2023-05-13T13:36:06;8.70;;;4.70;;
10715;SDS011;5409;42.620;23.316;2023-05-13T13:38:33;8.18;;;5.15;;
10715;SDS011;5409;42.620;23.316;2023-05-13T13:41:00;6.13;;;4.80;;
10715;SDS011;5409;42.620;23.316;2023-05-13T13:43:27;8.90;;;4.72;;
10715;SDS011;5409;42.620;23.316;2023-05-13T13:45:53;7.07;;;4.65;;
10715;SDS011;5409;42.620;23.316;2023-05-13T13:48:20;5.88;;;3.97;;
10715;SDS011;5409;42.620;23.316;2023-05-13T13:50:48;7.88;;;3.83;;
10715;SDS011;5409;42.620;23.316;2023-05-13T13:53:15;6.13;;;3.90;;
10715;SDS011;5409;42.620;23.316;2023-05-13T13:55:42;6.75;;;4.93;;
10715;SDS011;5409;42.620;23.316;2023-05-13T13:58:08;12.50;;;4.40;;
10715;SDS011;5409;42.620;23.316;2023-05-13T14:00:35;10.63;;;4.95;;
10715;SDS011;5409;42.620;23.316;2023-05-13T14:03:02;10.23;;;4.78;;
10715;SDS011;5409;42.620;23.316;2023-05-13T14:05:28;5.13;;;4.18;;
10715;SDS011;5409;42.620;23.316;2023-05-13T14:07:57;5.47;;;4.65;;
10715;SDS011;5409;42.620;23.316;2023-05-13T14:10:23;7.18;;;5.13;;
10715;SDS011;5409;42.620;23.316;2023-05-13T14:12:50;6.20;;;4.35;;
10715;SDS011;5409;42.620;23.316;2023-05-13T14:15:17;5.45;;;4.20;;
10715;SDS011;5409;42.620;23.316;2023-05-13T14:17:44;4.70;;;4.00;;
10715;SDS011;5409;42.620;23.316;2023-05-13T14:20:11;4.60;;;4.00;;
10715;SDS011;5409;42.620;23.316;2023-05-13T14:22:37;5.10;;;3.95;;
10715;SDS011;5409;42.620;23.316;2023-05-13T14:25:06;7.22;;;3.97;;
10715;SDS011;5409;42.620;23.316;2023-05-13T14:27:33;7.07;;;4.05;;
10715;SDS011;5409;42.620;23.316;2023-05-13T14:30:01;5.70;;;3.85;;
10715;SDS011;5409;42.620;23.316;2023-05-13T14:32:28;6.95;;;4.70;;
10715;SDS011;5409;42.620;23.316;2023-05-13T14:34:54;11.25;;;6.43;;
10715;SDS011;5409;42.620;23.316;2023-05-13T14:37:21;10.27;;;6.65;;
10715;SDS011;5409;42.620;23.316;2023-05-13T14:39:48;9.18;;;5.10;;
10715;SDS011;5409;42.620;23.316;2023-05-13T14:42:16;7.22;;;5.00;;
10715;SDS011;5409;42.620;23.316;2023-05-13T14:44:43;6.25;;;4.05;;
10715;SDS011;5409;42.620;23.316;2023-05-13T14:47:10;5.72;;;3.67;;
10715;SDS011;5409;42.620;23.316;2023-05-13T14:49:37;6.97;;;3.80;;